sensor_id;sensor_type;location;lat;lon;timestamp;temperature;humidity
26583;DHT22;14230;45.382;10.998;2023-04-24T00:02:15;16.70;99.90
26583;DHT22;14230;45.382;10.998;2023-04-24T00:04:43;16.70;99.90
26583;DHT22;14230;45.382;10.998;2023-04-24T00:07:13;16.70;99.90
26583;DHT22;14230;45.382;10.998;2023-04-24T00:09:44;16.60;99.90
26583;DHT22;14230;45.382;10.998;2023-04-24T00:12:12;16.60;99.90
26583;DHT22;14230;45.382;10.998;2023-04-24T00:14:39;16.60;99.90
26583;DHT22;14230;45.382;10.998;2023-04-24T00:17:07;16.60;99.90
26583;DHT22;14230;45.382;10.998;2023-04-24T00:19:34;16.50;99.90
26583;DHT22;14230;45.382;10.998;2023-04-24T00:22:02;16.50;99.90
26583;DHT22;14230;45.382;10.998;2023-04-24T00:24:30;16.40;99.90
26583;DHT22;14230;45.382;10.998;2023-04-24T00:26:57;16.50;99.90
26583;DHT22;14230;45.382;10.998;2023-04-24T00:29:25;16.40;99.90
26583;DHT22;14230;45.382;10.998;2023-04-24T00:31:54;16.50;99.90
26583;DHT22;14230;45.382;10.998;2023-04-24T00:34:21;16.40;99.90
26583;DHT22;14230;45.382;10.998;2023-04-24T00:36:49;16.40;99.90
26583;DHT22;14230;45.382;10.998;2023-04-24T00:39:19;16.40;99.90
26583;DHT22;14230;45.382;10.998;2023-04-24T00:41:47;16.30;99.90
26583;DHT22;14230;45.382;10.998;2023-04-24T00:44:15;16.30;99.90
26583;DHT22;14230;45.382;10.998;2023-04-24T00:46:43;16.30;99.90
26583;DHT22;14230;45.382;10.998;2023-04-24T00:49:11;16.20;99.90
26583;DHT22;14230;45.382;10.998;2023-04-24T00:51:39;16.20;99.90
26583;DHT22;14230;45.382;10.998;2023-04-24T00:54:07;16.30;99.90
26583;DHT22;14230;45.382;10.998;2023-04-24T00:56:35;16.20;99.90
26583;DHT22;14230;45.382;10.998;2023-04-24T00:59:04;16.20;99.90
26583;DHT22;14230;45.382;10.998;2023-04-24T01:01:32;16.20;99.90
26583;DHT22;14230;45.382;10.998;2023-04-24T01:04:00;16.20;99.90
26583;DHT22;14230;45.382;10.998;2023-04-24T01:06:29;16.20;99.90
26583;DHT22;14230;45.382;10.998;2023-04-24T01:08:59;16.20;99.90
26583;DHT22;14230;45.382;10.998;2023-04-24T01:11:30;16.20;99.90
26583;DHT22;14230;45.382;10.998;2023-04-24T01:13:58;16.20;99.90
26583;DHT22;14230;45.382;10.998;2023-04-24T01:16:26;16.20;99.90
26583;DHT22;14230;45.382;10.998;2023-04-24T01:18:53;16.30;99.90
26583;DHT22;14230;45.382;10.998;2023-04-24T01:21:21;16.30;99.90
26583;DHT22;14230;45.382;10.998;2023-04-24T01:23:50;16.30;99.90
26583;DHT22;14230;45.382;10.998;2023-04-24T01:26:18;16.30;99.90
26583;DHT22;14230;45.382;10.998;2023-04-24T01:28:48;16.30;99.90
26583;DHT22;14230;45.382;10.998;2023-04-24T01:31:15;16.30;99.90
26583;DHT22;14230;45.382;10.998;2023-04-24T01:33:43;16.20;99.90
26583;DHT22;14230;45.382;10.998;2023-04-24T01:36:11;16.20;99.90
26583;DHT22;14230;45.382;10.998;2023-04-24T01:38:38;16.10;99.90
26583;DHT22;14230;45.382;10.998;2023-04-24T01:41:06;15.90;99.90
26583;DHT22;14230;45.382;10.998;2023-04-24T01:43:33;15.80;99.90
26583;DHT22;14230;45.382;10.998;2023-04-24T01:46:00;15.80;99.90
26583;DHT22;14230;45.382;10.998;2023-04-24T01:48:28;15.80;99.90
26583;DHT22;14230;45.382;10.998;2023-04-24T01:50:57;15.80;99.90
26583;DHT22;14230;45.382;10.998;2023-04-24T01:53:24;15.80;99.90
26583;DHT22;14230;45.382;10.998;2023-04-24T01:55:52;15.80;99.90
26583;DHT22;14230;45.382;10.998;2023-04-24T01:58:19;15.80;99.90
26583;DHT22;14230;45.382;10.998;2023-04-24T02:00:47;15.70;99.90
26583;DHT22;14230;45.382;10.998;2023-04-24T02:03:14;15.60;99.90
26583;DHT22;14230;45.382;10.998;2023-04-24T02:05:44;15.50;99.90
26583;DHT22;14230;45.382;10.998;2023-04-24T02:08:12;15.30;99.90
26583;DHT22;14230;45.382;10.998;2023-04-24T02:10:39;15.20;99.90
26583;DHT22;14230;45.382;10.998;2023-04-24T02:13:07;15.10;99.90
26583;DHT22;14230;45.382;10.998;2023-04-24T02:15:34;15.00;99.90
26583;DHT22;14230;45.382;10.998;2023-04-24T02:18:03;14.90;99.90
26583;DHT22;14230;45.382;10.998;2023-04-24T02:20:31;14.90;99.90
26583;DHT22;14230;45.382;10.998;2023-04-24T02:23:01;14.80;99.90
26583;DHT22;14230;45.382;10.998;2023-04-24T02:25:29;14.60;99.90
26583;DHT22;14230;45.382;10.998;2023-04-24T02:27:56;14.40;99.90
26583;DHT22;14230;45.382;10.998;2023-04-24T02:30:24;14.40;99.90
26583;DHT22;14230;45.382;10.998;2023-04-24T02:32:52;14.30;99.90
26583;DHT22;14230;45.382;10.998;2023-04-24T02:35:19;14.20;99.90
26583;DHT22;14230;45.382;10.998;2023-04-24T02:37:47;14.10;99.90
26583;DHT22;14230;45.382;10.998;2023-04-24T02:40:14;14.10;99.90
26583;DHT22;14230;45.382;10.998;2023-04-24T02:42:42;14.10;99.90
26583;DHT22;14230;45.382;10.998;2023-04-24T02:45:10;14.10;99.90
26583;DHT22;14230;45.382;10.998;2023-04-24T02:47:37;14.00;99.90
26583;DHT22;14230;45.382;10.998;2023-04-24T02:50:05;14.00;99.90
26583;DHT22;14230;45.382;10.998;2023-04-24T02:52:33;14.00;99.90
26583;DHT22;14230;45.382;10.998;2023-04-24T02:55:01;14.00;99.90
26583;DHT22;14230;45.382;10.998;2023-04-24T02:57:28;13.90;99.90
26583;DHT22;14230;45.382;10.998;2023-04-24T02:59:55;13.90;99.90
26583;DHT22;14230;45.382;10.998;2023-04-24T03:02:23;13.90;99.90
26583;DHT22;14230;45.382;10.998;2023-04-24T03:04:57;13.90;99.90
26583;DHT22;14230;45.382;10.998;2023-04-24T03:07:24;13.80;99.90
26583;DHT22;14230;45.382;10.998;2023-04-24T03:09:52;13.80;99.90
26583;DHT22;14230;45.382;10.998;2023-04-24T03:12:19;13.80;99.90
26583;DHT22;14230;45.382;10.998;2023-04-24T03:14:47;13.80;99.90
26583;DHT22;14230;45.382;10.998;2023-04-24T03:17:14;13.80;99.90
26583;DHT22;14230;45.382;10.998;2023-04-24T03:19:42;13.80;99.90
26583;DHT22;14230;45.382;10.998;2023-04-24T03:22:11;13.80;99.90
26583;DHT22;14230;45.382;10.998;2023-04-24T03:24:40;13.80;99.90
26583;DHT22;14230;45.382;10.998;2023-04-24T03:27:07;13.70;99.90
26583;DHT22;14230;45.382;10.998;2023-04-24T03:29:55;13.70;99.90
26583;DHT22;14230;45.382;10.998;2023-04-24T03:32:39;13.60;99.90
26583;DHT22;14230;45.382;10.998;2023-04-24T03:35:09;13.70;99.90
26583;DHT22;14230;45.382;10.998;2023-04-24T03:37:36;13.70;99.90
26583;DHT22;14230;45.382;10.998;2023-04-24T03:40:22;13.60;99.90
26583;DHT22;14230;45.382;10.998;2023-04-24T03:42:50;13.60;99.90
26583;DHT22;14230;45.382;10.998;2023-04-24T03:45:18;13.60;99.90
26583;DHT22;14230;45.382;10.998;2023-04-24T03:47:49;13.50;99.90
26583;DHT22;14230;45.382;10.998;2023-04-24T03:50:19;13.50;99.90
26583;DHT22;14230;45.382;10.998;2023-04-24T03:52:47;13.50;99.90
26583;DHT22;14230;45.382;10.998;2023-04-24T03:55:25;13.50;99.90
26583;DHT22;14230;45.382;10.998;2023-04-24T03:57:53;13.50;99.90
26583;DHT22;14230;45.382;10.998;2023-04-24T04:00:22;13.50;99.90
26583;DHT22;14230;45.382;10.998;2023-04-24T04:03:01;13.50;99.90
26583;DHT22;14230;45.382;10.998;2023-04-24T04:05:29;13.40;99.90
26583;DHT22;14230;45.382;10.998;2023-04-24T04:07:57;13.40;99.90
26583;DHT22;14230;45.382;10.998;2023-04-24T04:10:25;13.40;99.90
26583;DHT22;14230;45.382;10.998;2023-04-24T04:12:52;13.50;99.90
26583;DHT22;14230;45.382;10.998;2023-04-24T04:15:19;13.50;99.90
26583;DHT22;14230;45.382;10.998;2023-04-24T04:17:49;13.60;99.90
26583;DHT22;14230;45.382;10.998;2023-04-24T04:20:17;13.60;99.90
26583;DHT22;14230;45.382;10.998;2023-04-24T04:22:44;13.70;99.90
26583;DHT22;14230;45.382;10.998;2023-04-24T04:25:17;13.80;99.90
26583;DHT22;14230;45.382;10.998;2023-04-24T04:27:47;13.80;99.90
26583;DHT22;14230;45.382;10.998;2023-04-24T04:30:18;13.70;99.90
26583;DHT22;14230;45.382;10.998;2023-04-24T04:32:52;13.80;99.90
26583;DHT22;14230;45.382;10.998;2023-04-24T04:35:20;13.70;99.90
26583;DHT22;14230;45.382;10.998;2023-04-24T04:37:50;13.80;99.90
26583;DHT22;14230;45.382;10.998;2023-04-24T04:40:36;13.80;99.90
26583;DHT22;14230;45.382;10.998;2023-04-24T04:43:05;13.80;99.90
26583;DHT22;14230;45.382;10.998;2023-04-24T04:45:41;13.80;99.90
26583;DHT22;14230;45.382;10.998;2023-04-24T04:48:37;13.80;99.90
26583;DHT22;14230;45.382;10.998;2023-04-24T04:51:06;13.70;99.90
26583;DHT22;14230;45.382;10.998;2023-04-24T04:53:34;13.70;99.90
26583;DHT22;14230;45.382;10.998;2023-04-24T04:56:02;13.70;99.90
26583;DHT22;14230;45.382;10.998;2023-04-24T04:58:35;13.80;99.90
26583;DHT22;14230;45.382;10.998;2023-04-24T05:01:06;13.80;99.90
26583;DHT22;14230;45.382;10.998;2023-04-24T05:03:39;13.80;99.90
26583;DHT22;14230;45.382;10.998;2023-04-24T05:06:10;13.80;99.90
26583;DHT22;14230;45.382;10.998;2023-04-24T05:08:39;13.80;99.90
26583;DHT22;14230;45.382;10.998;2023-04-24T05:11:16;13.70;99.90
26583;DHT22;14230;45.382;10.998;2023-04-24T05:13:44;13.50;99.90
26583;DHT22;14230;45.382;10.998;2023-04-24T05:16:16;13.50;99.90
26583;DHT22;14230;45.382;10.998;2023-04-24T05:18:44;13.50;99.90
26583;DHT22;14230;45.382;10.998;2023-04-24T05:21:14;13.60;99.90
26583;DHT22;14230;45.382;10.998;2023-04-24T05:23:46;13.60;99.90
26583;DHT22;14230;45.382;10.998;2023-04-24T05:26:19;13.70;99.90
26583;DHT22;14230;45.382;10.998;2023-04-24T05:28:47;13.80;99.90
26583;DHT22;14230;45.382;10.998;2023-04-24T05:31:15;13.80;99.90
26583;DHT22;14230;45.382;10.998;2023-04-24T05:33:45;13.80;99.90
26583;DHT22;14230;45.382;10.998;2023-04-24T05:36:12;13.80;99.90
26583;DHT22;14230;45.382;10.998;2023-04-24T05:38:41;13.80;99.90
26583;DHT22;14230;45.382;10.998;2023-04-24T05:41:08;13.90;99.90
26583;DHT22;14230;45.382;10.998;2023-04-24T05:43:36;13.80;99.90
26583;DHT22;14230;45.382;10.998;2023-04-24T05:46:03;13.80;99.90
26583;DHT22;14230;45.382;10.998;2023-04-24T05:48:31;13.80;99.90
26583;DHT22;14230;45.382;10.998;2023-04-24T05:51:01;13.80;99.90
26583;DHT22;14230;45.382;10.998;2023-04-24T05:53:28;13.90;99.90
26583;DHT22;14230;45.382;10.998;2023-04-24T05:55:56;14.00;99.90
26583;DHT22;14230;45.382;10.998;2023-04-24T05:58:24;14.00;99.90
26583;DHT22;14230;45.382;10.998;2023-04-24T06:00:52;14.10;99.90
26583;DHT22;14230;45.382;10.998;2023-04-24T06:03:19;14.10;99.90
26583;DHT22;14230;45.382;10.998;2023-04-24T06:05:50;14.20;99.90
26583;DHT22;14230;45.382;10.998;2023-04-24T06:08:18;14.20;99.90
26583;DHT22;14230;45.382;10.998;2023-04-24T06:10:47;14.30;99.90
26583;DHT22;14230;45.382;10.998;2023-04-24T06:13:17;14.30;99.90
26583;DHT22;14230;45.382;10.998;2023-04-24T06:16:01;14.40;99.90
26583;DHT22;14230;45.382;10.998;2023-04-24T06:18:33;14.40;99.90
26583;DHT22;14230;45.382;10.998;2023-04-24T06:21:01;14.50;99.90
26583;DHT22;14230;45.382;10.998;2023-04-24T06:23:29;14.50;99.90
26583;DHT22;14230;45.382;10.998;2023-04-24T06:25:59;14.50;99.90
26583;DHT22;14230;45.382;10.998;2023-04-24T06:28:27;14.60;99.90
26583;DHT22;14230;45.382;10.998;2023-04-24T06:30:54;14.70;99.90
26583;DHT22;14230;45.382;10.998;2023-04-24T06:33:22;14.60;99.90
26583;DHT22;14230;45.382;10.998;2023-04-24T06:35:50;14.60;99.90
26583;DHT22;14230;45.382;10.998;2023-04-24T06:38:17;14.50;99.90
26583;DHT22;14230;45.382;10.998;2023-04-24T06:40:45;14.50;99.90
26583;DHT22;14230;45.382;10.998;2023-04-24T06:43:12;14.40;99.90
26583;DHT22;14230;45.382;10.998;2023-04-24T06:45:40;14.50;99.90
26583;DHT22;14230;45.382;10.998;2023-04-24T06:48:07;14.50;99.90
26583;DHT22;14230;45.382;10.998;2023-04-24T06:50:35;14.50;99.90
26583;DHT22;14230;45.382;10.998;2023-04-24T06:53:02;14.50;99.90
26583;DHT22;14230;45.382;10.998;2023-04-24T06:55:30;14.50;99.90
26583;DHT22;14230;45.382;10.998;2023-04-24T06:57:58;14.30;99.90
26583;DHT22;14230;45.382;10.998;2023-04-24T07:00:25;14.30;99.90
26583;DHT22;14230;45.382;10.998;2023-04-24T07:02:53;14.30;99.90
26583;DHT22;14230;45.382;10.998;2023-04-24T07:05:21;14.40;99.90
26583;DHT22;14230;45.382;10.998;2023-04-24T07:07:48;14.40;99.90
26583;DHT22;14230;45.382;10.998;2023-04-24T07:10:17;14.40;99.90
26583;DHT22;14230;45.382;10.998;2023-04-24T07:12:45;14.50;99.90
26583;DHT22;14230;45.382;10.998;2023-04-24T07:15:13;14.60;99.90
26583;DHT22;14230;45.382;10.998;2023-04-24T07:17:41;14.70;99.90
26583;DHT22;14230;45.382;10.998;2023-04-24T07:20:11;14.80;99.90
26583;DHT22;14230;45.382;10.998;2023-04-24T07:22:39;14.80;99.90
26583;DHT22;14230;45.382;10.998;2023-04-24T07:25:07;15.00;99.90
26583;DHT22;14230;45.382;10.998;2023-04-24T07:27:35;15.20;99.90
26583;DHT22;14230;45.382;10.998;2023-04-24T07:30:04;15.30;99.90
26583;DHT22;14230;45.382;10.998;2023-04-24T07:32:32;15.40;99.90
26583;DHT22;14230;45.382;10.998;2023-04-24T07:35:00;15.40;99.90
26583;DHT22;14230;45.382;10.998;2023-04-24T07:37:28;15.40;99.90
26583;DHT22;14230;45.382;10.998;2023-04-24T07:39:56;15.30;99.90
26583;DHT22;14230;45.382;10.998;2023-04-24T07:42:23;15.30;99.90
26583;DHT22;14230;45.382;10.998;2023-04-24T07:44:50;15.30;99.90
26583;DHT22;14230;45.382;10.998;2023-04-24T07:47:18;15.30;99.90
26583;DHT22;14230;45.382;10.998;2023-04-24T07:49:45;15.40;99.90
26583;DHT22;14230;45.382;10.998;2023-04-24T07:52:13;15.50;99.90
26583;DHT22;14230;45.382;10.998;2023-04-24T07:54:40;15.60;99.90
26583;DHT22;14230;45.382;10.998;2023-04-24T07:57:08;15.70;99.90
26583;DHT22;14230;45.382;10.998;2023-04-24T07:59:36;15.70;99.90
26583;DHT22;14230;45.382;10.998;2023-04-24T08:02:03;15.70;99.90
26583;DHT22;14230;45.382;10.998;2023-04-24T08:04:32;15.80;99.90
26583;DHT22;14230;45.382;10.998;2023-04-24T08:06:59;15.80;99.90
26583;DHT22;14230;45.382;10.998;2023-04-24T08:09:27;15.90;99.90
26583;DHT22;14230;45.382;10.998;2023-04-24T08:11:54;16.10;99.90
26583;DHT22;14230;45.382;10.998;2023-04-24T08:14:22;16.20;99.90
26583;DHT22;14230;45.382;10.998;2023-04-24T08:16:49;16.50;99.90
26583;DHT22;14230;45.382;10.998;2023-04-24T08:19:17;16.70;99.90
26583;DHT22;14230;45.382;10.998;2023-04-24T08:21:44;17.10;99.90
26583;DHT22;14230;45.382;10.998;2023-04-24T08:24:12;17.60;99.90
26583;DHT22;14230;45.382;10.998;2023-04-24T08:26:39;18.20;99.90
26583;DHT22;14230;45.382;10.998;2023-04-24T08:29:07;18.50;99.90
26583;DHT22;14230;45.382;10.998;2023-04-24T08:31:34;18.60;99.90
26583;DHT22;14230;45.382;10.998;2023-04-24T08:34:03;18.60;99.90
26583;DHT22;14230;45.382;10.998;2023-04-24T08:36:30;18.50;99.90
26583;DHT22;14230;45.382;10.998;2023-04-24T08:39:12;18.30;99.90
26583;DHT22;14230;45.382;10.998;2023-04-24T08:41:41;18.20;99.90
26583;DHT22;14230;45.382;10.998;2023-04-24T08:44:10;18.10;99.90
26583;DHT22;14230;45.382;10.998;2023-04-24T08:46:39;18.20;99.90
26583;DHT22;14230;45.382;10.998;2023-04-24T08:49:08;18.10;99.90
26583;DHT22;14230;45.382;10.998;2023-04-24T08:51:36;18.20;99.90
26583;DHT22;14230;45.382;10.998;2023-04-24T08:54:05;18.30;99.90
26583;DHT22;14230;45.382;10.998;2023-04-24T08:56:34;18.50;99.90
26583;DHT22;14230;45.382;10.998;2023-04-24T08:59:06;18.60;99.90
26583;DHT22;14230;45.382;10.998;2023-04-24T09:01:34;18.60;99.90
26583;DHT22;14230;45.382;10.998;2023-04-24T09:04:03;18.80;99.90
26583;DHT22;14230;45.382;10.998;2023-04-24T09:06:32;19.10;99.90
26583;DHT22;14230;45.382;10.998;2023-04-24T09:09:01;19.30;99.90
26583;DHT22;14230;45.382;10.998;2023-04-24T09:11:31;19.50;99.90
26583;DHT22;14230;45.382;10.998;2023-04-24T09:13:59;19.80;99.90
26583;DHT22;14230;45.382;10.998;2023-04-24T09:16:27;20.00;99.90
26583;DHT22;14230;45.382;10.998;2023-04-24T09:18:55;19.60;99.90
26583;DHT22;14230;45.382;10.998;2023-04-24T09:21:23;19.40;99.90
26583;DHT22;14230;45.382;10.998;2023-04-24T09:24:01;19.20;99.90
26583;DHT22;14230;45.382;10.998;2023-04-24T09:26:31;19.10;99.90
26583;DHT22;14230;45.382;10.998;2023-04-24T09:29:00;19.30;99.90
26583;DHT22;14230;45.382;10.998;2023-04-24T09:31:28;19.40;99.90
26583;DHT22;14230;45.382;10.998;2023-04-24T09:33:59;19.60;99.90
26583;DHT22;14230;45.382;10.998;2023-04-24T09:36:34;19.80;99.90
26583;DHT22;14230;45.382;10.998;2023-04-24T09:39:12;19.80;99.90
26583;DHT22;14230;45.382;10.998;2023-04-24T09:41:47;19.90;99.90
26583;DHT22;14230;45.382;10.998;2023-04-24T09:46:46;20.50;99.90
26583;DHT22;14230;45.382;10.998;2023-04-24T09:49:26;20.90;99.90
26583;DHT22;14230;45.382;10.998;2023-04-24T09:52:07;21.20;99.90
26583;DHT22;14230;45.382;10.998;2023-04-24T09:54:35;21.30;99.90
26583;DHT22;14230;45.382;10.998;2023-04-24T09:57:04;21.60;99.90
26583;DHT22;14230;45.382;10.998;2023-04-24T09:59:31;21.40;99.90
26583;DHT22;14230;45.382;10.998;2023-04-24T10:02:00;21.70;99.90
26583;DHT22;14230;45.382;10.998;2023-04-24T10:04:28;22.10;99.90
26583;DHT22;14230;45.382;10.998;2023-04-24T10:06:57;22.00;99.90
26583;DHT22;14230;45.382;10.998;2023-04-24T10:09:26;22.20;99.90
26583;DHT22;14230;45.382;10.998;2023-04-24T10:11:54;22.40;99.90
26583;DHT22;14230;45.382;10.998;2023-04-24T10:14:23;22.70;99.90
26583;DHT22;14230;45.382;10.998;2023-04-24T10:16:53;22.30;99.90
26583;DHT22;14230;45.382;10.998;2023-04-24T10:19:25;22.50;99.90
26583;DHT22;14230;45.382;10.998;2023-04-24T10:21:53;22.90;99.90
26583;DHT22;14230;45.382;10.998;2023-04-24T10:24:23;23.10;99.90
26583;DHT22;14230;45.382;10.998;2023-04-24T10:26:50;23.30;99.90
26583;DHT22;14230;45.382;10.998;2023-04-24T10:29:19;23.60;99.90
26583;DHT22;14230;45.382;10.998;2023-04-24T10:31:46;23.90;99.90
26583;DHT22;14230;45.382;10.998;2023-04-24T10:34:16;23.90;99.90
26583;DHT22;14230;45.382;10.998;2023-04-24T10:36:54;23.90;99.90
26583;DHT22;14230;45.382;10.998;2023-04-24T10:39:24;23.90;99.90
26583;DHT22;14230;45.382;10.998;2023-04-24T10:41:55;24.10;99.90
26583;DHT22;14230;45.382;10.998;2023-04-24T10:44:39;23.90;99.90
26583;DHT22;14230;45.382;10.998;2023-04-24T10:47:13;23.90;99.90
26583;DHT22;14230;45.382;10.998;2023-04-24T10:49:41;24.20;99.90
26583;DHT22;14230;45.382;10.998;2023-04-24T10:52:09;24.30;99.90
26583;DHT22;14230;45.382;10.998;2023-04-24T10:54:46;24.40;99.90
26583;DHT22;14230;45.382;10.998;2023-04-24T11:00:14;24.10;99.90
26583;DHT22;14230;45.382;10.998;2023-04-24T11:02:46;23.90;99.90
26583;DHT22;14230;45.382;10.998;2023-04-24T11:05:17;23.80;99.90
26583;DHT22;14230;45.382;10.998;2023-04-24T11:08:10;23.60;99.90
26583;DHT22;14230;45.382;10.998;2023-04-24T11:10:40;23.20;99.90
26583;DHT22;14230;45.382;10.998;2023-04-24T11:13:08;23.10;99.90
26583;DHT22;14230;45.382;10.998;2023-04-24T11:15:37;22.70;99.90
26583;DHT22;14230;45.382;10.998;2023-04-24T11:18:05;22.50;99.90
26583;DHT22;14230;45.382;10.998;2023-04-24T11:20:33;22.30;99.90
26583;DHT22;14230;45.382;10.998;2023-04-24T11:23:03;22.30;99.90
26583;DHT22;14230;45.382;10.998;2023-04-24T11:25:32;22.20;99.90
26583;DHT22;14230;45.382;10.998;2023-04-24T11:28:04;22.50;99.90
26583;DHT22;14230;45.382;10.998;2023-04-24T11:30:33;22.70;99.90
26583;DHT22;14230;45.382;10.998;2023-04-24T11:33:05;22.90;99.90
26583;DHT22;14230;45.382;10.998;2023-04-24T11:35:39;22.90;99.90
26583;DHT22;14230;45.382;10.998;2023-04-24T11:38:07;22.80;99.90
26583;DHT22;14230;45.382;10.998;2023-04-24T11:40:51;22.90;99.90
26583;DHT22;14230;45.382;10.998;2023-04-24T11:43:19;22.70;99.90
26583;DHT22;14230;45.382;10.998;2023-04-24T11:45:48;22.60;99.90
26583;DHT22;14230;45.382;10.998;2023-04-24T11:48:20;22.80;99.90
26583;DHT22;14230;45.382;10.998;2023-04-24T11:50:51;22.80;99.90
26583;DHT22;14230;45.382;10.998;2023-04-24T11:53:20;22.70;99.90
26583;DHT22;14230;45.382;10.998;2023-04-24T11:55:49;22.60;99.90
26583;DHT22;14230;45.382;10.998;2023-04-24T11:58:20;22.60;99.90
26583;DHT22;14230;45.382;10.998;2023-04-24T12:00:56;22.50;99.90
26583;DHT22;14230;45.382;10.998;2023-04-24T12:03:24;22.70;99.90
26583;DHT22;14230;45.382;10.998;2023-04-24T12:05:52;22.70;99.90
26583;DHT22;14230;45.382;10.998;2023-04-24T12:08:29;22.70;99.90
26583;DHT22;14230;45.382;10.998;2023-04-24T12:10:56;22.70;99.90
26583;DHT22;14230;45.382;10.998;2023-04-24T12:13:25;22.60;99.90
26583;DHT22;14230;45.382;10.998;2023-04-24T12:15:53;22.60;99.90
26583;DHT22;14230;45.382;10.998;2023-04-24T12:18:24;22.50;99.90
26583;DHT22;14230;45.382;10.998;2023-04-24T12:20:51;22.50;99.90
26583;DHT22;14230;45.382;10.998;2023-04-24T12:23:35;22.50;99.90
26583;DHT22;14230;45.382;10.998;2023-04-24T12:26:06;22.60;99.90
26583;DHT22;14230;45.382;10.998;2023-04-24T12:28:38;22.60;99.90
26583;DHT22;14230;45.382;10.998;2023-04-24T12:31:06;22.50;99.90
26583;DHT22;14230;45.382;10.998;2023-04-24T12:33:35;22.40;99.90
26583;DHT22;14230;45.382;10.998;2023-04-24T12:36:03;22.40;99.90
26583;DHT22;14230;45.382;10.998;2023-04-24T12:38:31;22.50;99.90
26583;DHT22;14230;45.382;10.998;2023-04-24T12:41:14;22.50;99.90
26583;DHT22;14230;45.382;10.998;2023-04-24T12:43:54;22.40;99.90
26583;DHT22;14230;45.382;10.998;2023-04-24T12:46:22;22.40;99.90
26583;DHT22;14230;45.382;10.998;2023-04-24T12:48:50;22.20;99.90
26583;DHT22;14230;45.382;10.998;2023-04-24T12:51:20;22.20;99.90
26583;DHT22;14230;45.382;10.998;2023-04-24T12:53:48;22.20;99.90
26583;DHT22;14230;45.382;10.998;2023-04-24T12:56:15;22.30;99.90
26583;DHT22;14230;45.382;10.998;2023-04-24T12:58:43;22.20;99.90
26583;DHT22;14230;45.382;10.998;2023-04-24T13:01:10;22.00;99.90
26583;DHT22;14230;45.382;10.998;2023-04-24T13:03:38;21.90;99.90
26583;DHT22;14230;45.382;10.998;2023-04-24T13:06:06;22.00;99.90
26583;DHT22;14230;45.382;10.998;2023-04-24T13:08:33;22.10;99.90
26583;DHT22;14230;45.382;10.998;2023-04-24T13:11:01;22.10;99.90
26583;DHT22;14230;45.382;10.998;2023-04-24T13:13:29;22.10;99.40
26583;DHT22;14230;45.382;10.998;2023-04-24T13:15:56;21.90;98.40
26583;DHT22;14230;45.382;10.998;2023-04-24T13:18:25;22.00;99.90
26583;DHT22;14230;45.382;10.998;2023-04-24T13:20:53;22.00;99.80
26583;DHT22;14230;45.382;10.998;2023-04-24T13:23:20;22.00;99.20
26583;DHT22;14230;45.382;10.998;2023-04-24T13:25:48;22.00;98.80
26583;DHT22;14230;45.382;10.998;2023-04-24T13:28:15;22.10;99.20
26583;DHT22;14230;45.382;10.998;2023-04-24T13:30:43;22.00;99.50
26583;DHT22;14230;45.382;10.998;2023-04-24T13:33:11;22.00;99.80
26583;DHT22;14230;45.382;10.998;2023-04-24T13:35:38;22.10;99.90
26583;DHT22;14230;45.382;10.998;2023-04-24T13:38:05;22.10;99.90
26583;DHT22;14230;45.382;10.998;2023-04-24T13:40:33;22.10;99.90
26583;DHT22;14230;45.382;10.998;2023-04-24T13:43:01;22.10;99.90
26583;DHT22;14230;45.382;10.998;2023-04-24T13:45:29;22.20;99.90
26583;DHT22;14230;45.382;10.998;2023-04-24T13:47:56;22.20;99.90
26583;DHT22;14230;45.382;10.998;2023-04-24T13:50:24;22.30;99.90
26583;DHT22;14230;45.382;10.998;2023-04-24T13:52:52;22.30;99.90
26583;DHT22;14230;45.382;10.998;2023-04-24T13:55:20;22.20;99.90
26583;DHT22;14230;45.382;10.998;2023-04-24T13:57:47;22.10;99.90
26583;DHT22;14230;45.382;10.998;2023-04-24T14:00:15;22.10;99.90
26583;DHT22;14230;45.382;10.998;2023-04-24T14:02:42;22.10;99.90
26583;DHT22;14230;45.382;10.998;2023-04-24T14:05:10;22.20;99.90
26583;DHT22;14230;45.382;10.998;2023-04-24T14:07:38;22.20;99.90
26583;DHT22;14230;45.382;10.998;2023-04-24T14:10:06;22.20;99.90
26583;DHT22;14230;45.382;10.998;2023-04-24T14:12:34;22.20;99.80
26583;DHT22;14230;45.382;10.998;2023-04-24T14:15:02;22.30;99.80
26583;DHT22;14230;45.382;10.998;2023-04-24T14:17:31;22.20;99.10
26583;DHT22;14230;45.382;10.998;2023-04-24T14:19:58;22.00;99.90
26583;DHT22;14230;45.382;10.998;2023-04-24T14:22:27;22.00;99.90
26583;DHT22;14230;45.382;10.998;2023-04-24T14:24:55;22.00;99.90
26583;DHT22;14230;45.382;10.998;2023-04-24T14:27:22;21.90;99.90
26583;DHT22;14230;45.382;10.998;2023-04-24T14:29:52;21.90;99.90
26583;DHT22;14230;45.382;10.998;2023-04-24T14:32:20;21.90;99.90
26583;DHT22;14230;45.382;10.998;2023-04-24T14:34:47;21.80;99.90
26583;DHT22;14230;45.382;10.998;2023-04-24T14:37:15;21.70;99.90
26583;DHT22;14230;45.382;10.998;2023-04-24T14:39:42;21.80;99.90
26583;DHT22;14230;45.382;10.998;2023-04-24T14:42:16;21.80;99.90
26583;DHT22;14230;45.382;10.998;2023-04-24T14:44:44;21.80;99.90
26583;DHT22;14230;45.382;10.998;2023-04-24T14:47:11;21.90;99.90
26583;DHT22;14230;45.382;10.998;2023-04-24T14:49:39;22.00;99.90
26583;DHT22;14230;45.382;10.998;2023-04-24T14:52:07;22.00;99.90
26583;DHT22;14230;45.382;10.998;2023-04-24T14:54:34;22.00;99.90
26583;DHT22;14230;45.382;10.998;2023-04-24T14:57:02;21.90;99.90
26583;DHT22;14230;45.382;10.998;2023-04-24T14:59:29;21.80;99.90
26583;DHT22;14230;45.382;10.998;2023-04-24T15:01:58;21.70;99.90
26583;DHT22;14230;45.382;10.998;2023-04-24T15:04:42;21.70;99.90
26583;DHT22;14230;45.382;10.998;2023-04-24T15:07:10;21.80;99.90
26583;DHT22;14230;45.382;10.998;2023-04-24T15:09:37;21.90;99.90
26583;DHT22;14230;45.382;10.998;2023-04-24T15:12:05;22.00;99.90
26583;DHT22;14230;45.382;10.998;2023-04-24T15:14:32;22.00;99.90
26583;DHT22;14230;45.382;10.998;2023-04-24T15:17:00;22.10;99.90
26583;DHT22;14230;45.382;10.998;2023-04-24T15:19:27;22.00;99.90
26583;DHT22;14230;45.382;10.998;2023-04-24T15:21:55;22.10;99.90
26583;DHT22;14230;45.382;10.998;2023-04-24T15:24:22;22.10;99.90
26583;DHT22;14230;45.382;10.998;2023-04-24T15:26:50;22.20;99.90
26583;DHT22;14230;45.382;10.998;2023-04-24T15:29:17;22.20;99.90
26583;DHT22;14230;45.382;10.998;2023-04-24T15:31:50;22.20;99.90
26583;DHT22;14230;45.382;10.998;2023-04-24T15:34:17;22.20;99.90